LEZG/ZAZ METAR and TAF weather

Enter ICAO airport designator
Station Type Date Time Source
LEZG METAR 2020/09/24 12:30 UTC NOAA

LEZG 241230Z 23008KT 200V270 9999 SCT065 24/13 Q1012


Station Type Date Time Source
LEZG Decoded METAR 2020/09/24 12:30 UTC NOAA

Zaragoza / Aeropuerto, Spain (LEZG) 41-40N 001-01W 258M
Sep 24, 2020 - 08:30 AM EDT / 2020.09.24 1230 UTC
Wind: from the SW (230 degrees) at 9 MPH (8 KT) (direction variable):0
Visibility: greater than 7 mile(s):0
Sky conditions: partly cloudy
Temperature: 75 F (24 C)
Dew Point: 55 F (13 C)
Relative Humidity: 50%
Pressure (altimeter): 29.88 in. Hg (1012 hPa)
ob: LEZG 241230Z 23008KT 200V270 9999 SCT065 24/13 Q1012
cycle: 12

Station Type Date Time Source
LEZG TAF 2020/09/24 12:27 UTC NOAA

TAF LEZG 241100Z 2412/2512 27014KT 9999 FEW070 TX26/2414Z TN12/2506Z PROB30
TEMPO 2412/2413 4000 RA BKN030
TEMPO 2413/2422 27020G30KT
BECMG 2508/2510 30020KT
TEMPO 2508/2512 30030G40KT

Example: see airport list